Time;durP1;ratioP1;P1;durP2;ratioP2;P2;SDS_P1;SDS_P2;PMS_P1;PMS_P2;Temp;Humidity;BMP_temperature;BMP_pressure;BME280_temperature;BME280_humidity;BME280_pressure;Samples;Min_cycle;Max_cycle;Signal;HPM_P1;HPM_P2
2023/08/25 00:00:29;;;;;;;;;;;22.20;82.00;;;21.40;100.00;95859.28;4970911;28;19921;-62
2023/08/25 00:02:55;;;;;;;;;;;22.30;82.30;;;21.40;100.00;95851.25;4939093;28;19914;-62
2023/08/25 00:05:21;;;;;;;;;;;22.30;81.80;;;21.40;100.00;95837.06;4955105;28;19910;-62
2023/08/25 00:07:46;;;;;;;;;;;22.30;81.40;;;21.42;100.00;95852.84;4955318;28;20292;-62
2023/08/25 00:10:13;;;;;;;;;;;22.30;81.90;;;21.43;100.00;95851.78;4953567;28;19914;-62
2023/08/25 00:12:39;;;;;;;;;;;22.40;81.40;;;21.44;100.00;95842.69;4972413;28;20028;-62
2023/08/25 00:15:05;;;;;;;;;;;22.30;80.90;;;21.45;100.00;95849.66;4972493;28;19921;-62
2023/08/25 00:17:31;;;;;;;;;;;22.20;80.60;;;21.38;100.00;95866.78;4954883;28;19914;-62
2023/08/25 00:19:59;;;;;;;;;;;22.10;80.30;;;21.34;100.00;95881.75;4954818;28;20048;-62
2023/08/25 00:22:24;;;;;;;;;;;22.10;80.20;;;21.26;100.00;95874.19;4972113;28;19914;-62
2023/08/25 00:24:52;;;;;;;;;;;21.90;80.40;;;21.20;100.00;95842.31;4971080;28;19910;-62
2023/08/25 00:27:19;;;;;;;;;;;21.80;80.50;;;21.15;100.00;95840.44;4956565;28;20025;-62
2023/08/25 00:29:44;;;;;;;;;;;21.80;81.00;;;21.09;100.00;95857.53;4954753;28;19909;-62
2023/08/25 00:32:10;;;;;;;;;;;21.70;80.80;;;21.07;100.00;95855.13;4955177;28;19953;-62
2023/08/25 00:34:35;;;;;;;;;;;21.70;80.90;;;21.06;100.00;95852.72;4954479;28;19914;-62
2023/08/25 00:37:01;;;;;;;;;;;21.70;81.30;;;21.02;100.00;95848.94;4973168;28;19913;-62
2023/08/25 00:39:27;;;;;;;;;;;21.60;81.10;;;20.98;100.00;95858.53;4970229;28;19910;-62
2023/08/25 00:41:54;;;;;;;;;;;21.60;81.30;;;20.94;100.00;95868.94;4973267;28;19925;-62
2023/08/25 00:44:19;;;;;;;;;;;21.60;81.50;;;20.88;100.00;95858.50;4968625;28;19920;-62
2023/08/25 00:46:45;;;;;;;;;;;21.60;81.30;;;20.85;100.00;95865.19;4969546;28;19918;-62
2023/08/25 00:49:11;;;;;;;;;;;21.50;81.50;;;20.82;100.00;95856.84;4968874;28;20318;-62
2023/08/25 00:51:36;;;;;;;;;;;21.50;81.50;;;20.78;100.00;95854.69;4952294;28;19918;-62
2023/08/25 00:54:03;;;;;;;;;;;21.50;81.60;;;20.74;100.00;95856.28;4971371;28;19914;-62
2023/08/25 00:56:29;;;;;;;;;;;21.40;81.90;;;20.71;100.00;95846.09;4955533;28;19921;-62
2023/08/25 00:58:55;;;;;;;;;;;21.40;82.10;;;20.71;100.00;95838.09;4954270;28;19914;-62
2023/08/25 01:01:20;;;;;;;;;;;21.40;81.90;;;20.71;100.00;95821.25;4953912;28;20297;-62
2023/08/25 01:03:48;;;;;;;;;;;21.40;81.90;;;20.71;100.00;95818.56;4970176;28;19910;-62
2023/08/25 01:06:13;;;;;;;;;;;21.50;82.10;;;20.72;100.00;95802.28;4954387;28;19918;-62
2023/08/25 01:08:39;;;;;;;;;;;21.50;81.70;;;20.71;100.00;95800.66;4953795;28;19921;-62
2023/08/25 01:11:40;;;;;;;;;;;21.40;81.20;;;20.72;100.00;95796.94;4953808;28;20301;-62
2023/08/25 01:14:15;;;;;;;;;;;21.50;81.80;;;20.73;100.00;95795.88;4964755;28;20373;-62
2023/08/25 01:17:05;;;;;;;;;;;21.50;81.00;;;20.74;100.00;95794.81;4968621;28;19952;-62
2023/08/25 01:19:56;;;;;;;;;;;21.60;80.90;;;20.72;100.00;95804.16;4958456;28;19921;-62
2023/08/25 01:22:28;;;;;;;;;;;21.50;81.00;;;20.68;100.00;95803.88;4969530;28;19921;-62
2023/08/25 01:24:57;;;;;;;;;;;21.40;80.90;;;20.66;100.00;95811.34;4970117;28;19945;-61
2023/08/25 01:27:23;;;;;;;;;;;21.40;80.90;;;20.64;100.00;95808.13;4954285;28;19920;-62
2023/08/25 01:29:48;;;;;;;;;;;21.40;80.80;;;20.63;100.00;95806.53;4953803;28;19910;-62
2023/08/25 01:32:14;;;;;;;;;;;21.40;80.50;;;20.64;100.00;95807.31;4969199;28;20296;-62
2023/08/25 01:34:40;;;;;;;;;;;21.40;80.50;;;20.62;100.00;95794.22;4969497;28;19917;-63
2023/08/25 01:37:20;;;;;;;;;;;21.40;79.80;;;20.65;100.00;95790.22;4967118;28;20361;-62
2023/08/25 01:39:48;;;;;;;;;;;21.40;79.70;;;20.66;100.00;95794.50;4969577;28;20518;-62
2023/08/25 01:42:13;;;;;;;;;;;21.50;79.60;;;20.67;100.00;95796.09;4952248;28;20302;-62
2023/08/25 01:44:39;;;;;;;;;;;21.50;79.50;;;20.68;100.00;95787.03;4952742;28;19914;-62
2023/08/25 01:47:05;;;;;;;;;;;21.50;79.20;;;20.68;100.00;95793.19;4952298;28;20078;-61
2023/08/25 01:49:31;;;;;;;;;;;21.50;78.80;;;20.68;100.00;95782.47;4937395;28;19914;-62
2023/08/25 01:51:56;;;;;;;;;;;21.50;78.80;;;20.70;100.00;95783.03;4951563;28;20284;-62
2023/08/25 01:54:22;;;;;;;;;;;21.60;78.30;;;20.71;99.89;95776.63;4970176;28;19917;-61
2023/08/25 01:56:47;;;;;;;;;;;21.60;78.00;;;20.73;99.07;95774.47;4969071;28;19914;-62
2023/08/25 01:59:13;;;;;;;;;;;21.60;77.70;;;20.74;98.94;95768.06;4970363;28;20565;-61
2023/08/25 02:01:39;;;;;;;;;;;21.60;77.70;;;20.76;98.13;95765.94;4969061;28;19914;-62
2023/08/25 02:04:05;;;;;;;;;;;21.60;77.20;;;20.80;98.81;95758.19;4967188;28;19916;-62
2023/08/25 02:06:32;;;;;;;;;;;21.60;77.00;;;20.83;99.03;95762.25;4967625;28;19914;-62
2023/08/25 02:08:57;;;;;;;;;;;21.70;77.00;;;20.86;98.19;95746.47;4952906;28;19914;-62
2023/08/25 02:11:23;;;;;;;;;;;21.70;77.10;;;20.88;96.08;95749.69;4964622;28;19918;-62
2023/08/25 02:13:49;;;;;;;;;;;21.70;76.60;;;20.91;96.89;95748.34;4951556;28;19910;-62
2023/08/25 02:16:14;;;;;;;;;;;21.80;76.40;;;20.94;96.47;95739.81;4967665;28;20290;-62
2023/08/25 02:18:40;;;;;;;;;;;21.80;76.10;;;20.97;93.58;95736.59;4967614;28;19913;-62
2023/08/25 02:21:06;;;;;;;;;;;21.80;76.10;;;20.99;95.28;95755.88;4953060;28;20347;-62
2023/08/25 02:23:32;;;;;;;;;;;21.80;75.90;;;20.98;97.78;95755.06;4968852;28;19910;-62
2023/08/25 02:25:57;;;;;;;;;;;21.80;76.30;;;21.00;96.48;95757.47;4952212;28;19980;-62
2023/08/25 02:28:23;;;;;;;;;;;21.80;76.10;;;21.01;96.95;95754.53;4967864;28;20927;-62
2023/08/25 02:30:49;;;;;;;;;;;21.90;75.90;;;21.04;96.14;95748.66;4968027;28;19913;-62
2023/08/25 02:33:15;;;;;;;;;;;21.90;75.90;;;21.04;96.08;95747.84;4966907;28;19976;-62
2023/08/25 02:35:41;;;;;;;;;;;21.90;75.80;;;21.05;95.46;95749.47;4965699;28;20369;-62
2023/08/25 02:38:09;;;;;;;;;;;21.90;75.70;;;21.06;96.37;95745.75;4969663;28;20294;-62
2023/08/25 02:40:35;;;;;;;;;;;21.90;76.10;;;21.06;94.86;95745.75;4935867;28;19980;-62
2023/08/25 02:43:02;;;;;;;;;;;21.90;75.40;;;21.05;94.90;95734.25;4936567;28;20444;-62
2023/08/25 02:45:27;;;;;;;;;;;21.90;75.30;;;21.07;94.23;95728.63;4965631;28;19910;-62
2023/08/25 02:47:53;;;;;;;;;;;22.00;74.90;;;21.06;92.40;95725.16;4968851;28;19925;-62
2023/08/25 02:50:19;;;;;;;;;;;22.00;74.60;;;21.04;94.08;95729.94;4965751;28;20297;-62
2023/08/25 02:52:45;;;;;;;;;;;22.00;74.40;;;21.05;93.00;95725.41;4967510;28;19969;-62
2023/08/25 02:55:14;;;;;;;;;;;21.90;74.20;;;21.05;92.54;95717.41;4968330;28;19918;-62
2023/08/25 02:57:40;;;;;;;;;;;21.90;73.90;;;21.05;92.54;95720.06;4952586;28;19920;-62
2023/08/25 03:00:07;;;;;;;;;;;21.90;73.80;;;21.05;92.40;95728.91;4967027;28;19917;-62
2023/08/25 03:02:33;;;;;;;;;;;21.90;74.00;;;21.05;92.36;95728.09;4950743;28;20008;-62
2023/08/25 03:04:59;;;;;;;;;;;22.00;74.20;;;21.06;93.07;95721.69;4966252;28;19914;-62
2023/08/25 03:07:24;;;;;;;;;;;22.00;74.50;;;21.04;92.03;95723.78;4968930;28;20378;-62
2023/08/25 03:09:50;;;;;;;;;;;21.90;74.00;;;21.02;92.69;95720.56;4951742;28;19917;-62
2023/08/25 03:12:16;;;;;;;;;;;21.90;74.20;;;21.01;92.58;95714.41;4952037;28;19925;-62
2023/08/25 03:14:41;;;;;;;;;;;21.90;73.70;;;21.02;92.38;95713.34;4949096;28;20378;-62
2023/08/25 03:17:08;;;;;;;;;;;22.00;74.20;;;21.01;93.03;95710.94;4968289;28;19914;-62
2023/08/25 03:19:34;;;;;;;;;;;21.90;73.90;;;21.01;92.72;95717.09;4967787;28;20013;-62
2023/08/25 03:22:00;;;;;;;;;;;22.00;73.50;;;21.00;91.31;95712.81;4952361;28;20333;-62
2023/08/25 03:24:26;;;;;;;;;;;21.90;73.50;;;20.99;91.07;95697.03;4968970;28;19920;-63
2023/08/25 03:26:52;;;;;;;;;;;21.90;73.20;;;20.99;91.37;95699.72;4968203;28;20053;-62
2023/08/25 03:29:17;;;;;;;;;;;21.90;73.20;;;20.99;91.34;95697.03;4968626;28;19914;-62
2023/08/25 03:31:43;;;;;;;;;;;21.90;73.20;;;20.98;91.19;95709.59;4951406;28;19922;-62
2023/08/25 03:34:09;;;;;;;;;;;21.90;73.30;;;20.97;91.35;95710.66;4955422;28;20405;-63
2023/08/25 03:36:35;;;;;;;;;;;21.90;73.30;;;20.99;90.41;95713.88;4966527;28;20373;-62
2023/08/25 03:39:00;;;;;;;;;;;21.90;72.80;;;21.01;90.95;95719.78;4969074;28;19937;-62
2023/08/25 03:41:26;;;;;;;;;;;22.00;73.10;;;21.04;90.79;95715.75;4969055;28;19918;-62
2023/08/25 03:43:52;;;;;;;;;;;22.10;72.90;;;21.03;90.63;95714.16;4968985;28;19914;-62
2023/08/25 03:46:17;;;;;;;;;;;22.00;72.60;;;21.05;89.59;95712.03;4966536;28;19910;-62
2023/08/25 03:48:43;;;;;;;;;;;22.10;72.30;;;21.05;90.39;95717.41;4967018;28;19953;-68
2023/08/25 03:51:08;;;;;;;;;;;22.00;72.60;;;21.06;91.60;95725.16;4963903;28;19914;-67
2023/08/25 03:53:34;;;;;;;;;;;22.10;73.20;;;21.06;90.33;95738.53;4934902;28;19922;-64
2023/08/25 03:56:00;;;;;;;;;;;22.00;72.40;;;21.04;89.05;95732.59;4951448;28;20397;-64
2023/08/25 03:58:26;;;;;;;;;;;22.00;72.40;;;21.04;88.98;95727.25;4949802;28;19913;-62
2023/08/25 04:00:54;;;;;;;;;;;22.00;71.90;;;21.04;88.71;95718.44;4964521;28;19914;-61
2023/08/25 04:03:19;;;;;;;;;;;22.00;71.80;;;21.03;89.20;95712.28;4951184;28;19918;-62
2023/08/25 04:05:45;;;;;;;;;;;22.00;72.00;;;21.02;88.80;95715.22;4968438;28;19968;-62
2023/08/25 04:08:11;;;;;;;;;;;21.90;72.00;;;21.00;88.12;95710.13;4968859;28;20001;-62
2023/08/25 04:10:37;;;;;;;;;;;22.00;71.60;;;21.00;88.10;95709.34;4966891;28;19913;-62
2023/08/25 04:13:03;;;;;;;;;;;21.90;71.70;;;21.00;87.97;95714.69;4967477;28;20400;-62
2023/08/25 04:15:29;;;;;;;;;;;21.90;71.30;;;21.00;87.91;95710.13;4967236;28;19917;-62
2023/08/25 04:17:54;;;;;;;;;;;22.00;71.10;;;20.99;86.55;95708.53;4967610;28;20319;-62
2023/08/25 04:20:20;;;;;;;;;;;22.00;70.50;;;21.02;85.76;95707.19;4968516;28;20381;-62
2023/08/25 04:22:48;;;;;;;;;;;22.00;70.20;;;21.04;85.44;95705.06;4972324;28;19921;-62
2023/08/25 04:25:13;;;;;;;;;;;22.00;69.80;;;21.08;84.40;95703.50;4972119;28;19917;-62
2023/08/25 04:27:39;;;;;;;;;;;22.10;69.00;;;21.13;83.70;95700.81;4955229;28;20444;-62
2023/08/25 04:30:05;;;;;;;;;;;22.10;68.70;;;21.19;83.69;95706.97;4974444;28;19917;-61
2023/08/25 04:32:31;;;;;;;;;;;22.20;68.20;;;21.24;82.08;95705.13;4965848;28;19922;-62
2023/08/25 04:34:57;;;;;;;;;;;22.30;67.50;;;21.30;82.51;95693.38;4954381;28;20550;-62
2023/08/25 04:37:23;;;;;;;;;;;22.40;67.60;;;21.36;81.07;95678.94;4954257;28;19964;-61
2023/08/25 04:39:48;;;;;;;;;;;22.40;66.90;;;21.42;80.93;95666.34;4967938;28;19921;-61
2023/08/25 04:42:14;;;;;;;;;;;22.50;66.40;;;21.47;80.88;95647.63;4969251;28;19937;-62
2023/08/25 04:44:40;;;;;;;;;;;22.60;66.60;;;21.52;79.87;95652.19;4963562;28;19918;-62
2023/08/25 04:47:05;;;;;;;;;;;22.60;66.20;;;21.56;80.40;95650.56;4968239;28;19914;-61
2023/08/25 04:49:31;;;;;;;;;;;22.60;66.30;;;21.60;80.02;95654.31;4936983;28;19910;-62
2023/08/25 04:51:58;;;;;;;;;;;22.60;66.10;;;21.62;79.04;95630.75;4965600;28;19918;-61
2023/08/25 04:54:24;;;;;;;;;;;22.70;65.60;;;21.66;79.22;95639.84;4951760;28;19921;-62
2023/08/25 04:56:50;;;;;;;;;;;22.70;65.30;;;21.69;79.47;95636.63;4937599;28;20452;-62
2023/08/25 04:59:15;;;;;;;;;;;22.70;65.30;;;21.74;79.20;95620.56;4954292;28;19921;-64
2023/08/25 05:01:41;;;;;;;;;;;22.80;65.30;;;21.78;78.58;95623.50;4952143;28;19914;-63
2023/08/25 05:04:08;;;;;;;;;;;22.90;64.90;;;21.82;78.71;95636.09;4953623;28;19914;-68
2023/08/25 05:06:34;;;;;;;;;;;22.90;65.10;;;21.85;78.38;95619.47;4967693;28;19918;-69
2023/08/25 05:08:59;;;;;;;;;;;23.00;64.60;;;21.89;79.49;95619.72;4952739;28;19913;-69
2023/08/25 05:11:25;;;;;;;;;;;23.00;65.00;;;21.93;78.33;95605.50;4969443;28;20367;-70
2023/08/25 05:13:51;;;;;;;;;;;23.10;64.40;;;21.96;77.46;95593.47;4970309;28;19914;-70
2023/08/25 05:16:19;;;;;;;;;;;23.10;63.90;;;22.01;78.17;95609.53;4955791;28;19910;-63
2023/08/25 05:18:44;;;;;;;;;;;23.10;64.60;;;22.02;77.48;95603.91;4953105;28;19989;-68
2023/08/25 05:21:10;;;;;;;;;;;23.10;64.10;;;22.02;77.05;95609.25;4961068;28;19925;-68
2023/08/25 05:23:36;;;;;;;;;;;23.10;63.80;;;22.05;76.76;95628.56;4947827;28;19933;-68
2023/08/25 05:26:03;;;;;;;;;;;23.10;63.60;;;22.05;77.76;95626.69;4963786;28;20030;-67
2023/08/25 05:28:28;;;;;;;;;;;23.10;64.50;;;22.06;78.95;95606.06;4950224;28;19977;-68
2023/08/25 05:30:54;;;;;;;;;;;23.20;65.00;;;22.07;78.40;95618.38;4951094;28;19953;-66
2023/08/25 05:33:20;;;;;;;;;;;23.20;64.60;;;22.06;78.92;95632.84;4936749;28;19914;-64
2023/08/25 05:35:45;;;;;;;;;;;23.10;65.10;;;22.07;80.06;95637.13;4951353;28;19918;-63
2023/08/25 05:38:12;;;;;;;;;;;23.20;65.50;;;22.07;79.51;95615.69;4952112;28;20345;-63
2023/08/25 05:40:37;;;;;;;;;;;23.20;65.20;;;22.09;79.49;95618.91;4968661;28;20476;-64
2023/08/25 05:43:03;;;;;;;;;;;23.30;65.40;;;22.09;80.08;95625.06;4955475;28;19957;-63
2023/08/25 05:45:29;;;;;;;;;;;23.30;65.60;;;22.10;79.68;95609.78;4960563;28;19953;-64
2023/08/25 05:47:54;;;;;;;;;;;23.30;65.60;;;22.12;80.97;95613.00;4949460;28;19924;-63
2023/08/25 05:50:20;;;;;;;;;;;23.30;66.40;;;22.14;80.96;95600.13;4956021;28;20345;-63
2023/08/25 05:52:47;;;;;;;;;;;23.50;65.90;;;22.16;79.00;95571.19;4965208;28;19949;-63
2023/08/25 05:55:13;;;;;;;;;;;23.40;64.50;;;22.21;79.20;95573.84;4952998;28;20004;-64
2023/08/25 05:57:39;;;;;;;;;;;23.50;65.10;;;22.26;78.83;95576.50;4952014;28;19910;-69
2023/08/25 06:00:06;;;;;;;;;;;23.60;64.70;;;22.30;78.39;95569.53;4964358;28;20346;-69
2023/08/25 06:02:32;;;;;;;;;;;23.60;64.30;;;22.36;81.49;95565.72;4968626;28;19914;-64
2023/08/25 06:04:58;;;;;;;;;;;23.70;65.90;;;22.43;81.06;95576.16;4950604;28;19953;-64
2023/08/25 06:07:24;;;;;;;;;;;23.80;65.40;;;22.49;82.79;95575.84;4936011;28;19914;-64
2023/08/25 06:09:50;;;;;;;;;;;23.90;66.30;;;22.56;82.96;95573.66;4950920;28;20370;-65
2023/08/25 06:12:15;;;;;;;;;;;24.00;66.20;;;22.62;85.37;95575.22;4967456;28;19929;-65
2023/08/25 06:14:41;;;;;;;;;;;24.10;67.90;;;22.69;84.27;95571.44;4949310;28;20404;-64
2023/08/25 06:17:07;;;;;;;;;;;24.20;67.40;;;22.75;84.68;95567.66;4968075;28;20409;-64
2023/08/25 06:19:33;;;;;;;;;;;24.30;67.70;;;22.81;85.11;95569.22;4965716;28;19922;-63
2023/08/25 06:21:58;;;;;;;;;;;24.30;67.10;;;22.86;85.47;95569.22;4964863;28;19918;-63
2023/08/25 06:24:25;;;;;;;;;;;24.40;67.50;;;22.91;84.12;95569.19;4960316;28;20289;-63
2023/08/25 06:26:51;;;;;;;;;;;24.50;66.60;;;22.94;85.04;95568.63;4946437;28;19918;-65
2023/08/25 06:29:17;;;;;;;;;;;24.50;67.60;;;22.99;82.22;95552.47;4947029;28;20005;-65
2023/08/25 06:31:42;;;;;;;;;;;24.50;65.60;;;23.01;84.95;95550.31;4963911;28;19930;-66
2023/08/25 06:34:08;;;;;;;;;;;24.60;67.30;;;23.05;84.24;95540.63;4963617;28;19918;-65
2023/08/25 06:36:34;;;;;;;;;;;24.60;66.50;;;23.09;80.51;95524.78;4961211;28;19921;-64
2023/08/25 06:39:00;;;;;;;;;;;24.60;64.20;;;23.14;81.47;95533.59;4963011;28;19924;-67
2023/08/25 06:41:25;;;;;;;;;;;24.70;64.60;;;23.19;84.57;95538.09;4964248;28;20309;-64
2023/08/25 06:43:51;;;;;;;;;;;24.60;66.80;;;23.25;83.91;95533.47;4962889;28;19932;-67
2023/08/25 06:46:17;;;;;;;;;;;24.80;66.70;;;23.31;82.99;95545.75;4950249;28;19925;-71
2023/08/25 06:48:42;;;;;;;;;;;24.80;66.00;;;23.34;85.51;95537.16;4950598;28;20420;-64
2023/08/25 06:51:08;;;;;;;;;;;24.80;67.50;;;23.36;83.36;95545.75;4962570;28;19973;-65
2023/08/25 06:53:34;;;;;;;;;;;24.80;66.00;;;23.36;85.19;95535.00;4966727;28;19918;-69
2023/08/25 06:56:00;;;;;;;;;;;24.70;67.30;;;23.32;84.93;95537.47;4949308;28;20493;-67
2023/08/25 06:58:25;;;;;;;;;;;24.70;67.60;;;23.31;86.65;95545.75;4950195;28;19972;-65
2023/08/25 07:00:52;;;;;;;;;;;24.70;68.50;;;23.28;85.38;95540.97;4949619;28;19929;-66
2023/08/25 07:03:17;;;;;;;;;;;24.60;68.00;;;23.25;87.35;95549.59;4950879;28;20439;-66
2023/08/25 07:05:43;;;;;;;;;;;24.60;69.00;;;23.23;88.56;95550.66;4950584;28;19922;-70
2023/08/25 07:08:09;;;;;;;;;;;24.60;69.70;;;23.25;87.31;95552.25;4967017;28;19925;-65
2023/08/25 07:10:34;;;;;;;;;;;24.70;68.50;;;23.29;84.23;95554.09;4966001;28;19914;-66
2023/08/25 07:13:00;;;;;;;;;;;24.90;66.20;;;23.41;84.17;95551.06;4934619;28;20004;-64
2023/08/25 07:15:26;;;;;;;;;;;25.10;65.60;;;23.53;83.16;95543.41;4949418;28;19918;-69
2023/08/25 07:17:52;;;;;;;;;;;25.30;64.90;;;23.68;81.63;95537.91;4963865;28;19922;-66
2023/08/25 07:20:17;;;;;;;;;;;25.60;63.80;;;23.84;77.65;95530.50;4958576;28;20378;-68
2023/08/25 07:22:43;;;;;;;;;;;25.80;61.00;;;24.03;77.84;95525.16;4945057;28;20382;-64
2023/08/25 07:25:09;;;;;;;;;;;26.10;60.80;;;24.27;79.33;95533.97;4947279;28;19921;-64
2023/08/25 07:27:34;;;;;;;;;;;26.50;60.90;;;24.56;74.51;95525.00;4948402;28;19925;-64
2023/08/25 07:30:00;;;;;;;;;;;26.70;57.50;;;24.91;76.47;95531.75;4947962;28;19925;-66
2023/08/25 07:32:26;;;;;;;;;;;27.30;58.70;;;25.29;76.04;95533.28;4929955;28;19914;-63
2023/08/25 07:34:52;;;;;;;;;;;27.80;57.60;;;25.71;74.96;95531.47;4966631;28;19961;-66
2023/08/25 07:37:17;;;;;;;;;;;28.40;56.40;;;26.20;69.60;95532.66;4960925;28;19914;-66
2023/08/25 07:39:49;;;;;;;;;;;29.00;52.50;;;26.69;69.45;95531.88;4961282;28;20320;-71
2023/08/25 07:42:14;;;;;;;;;;;29.60;52.20;;;27.14;65.67;95526.50;4944807;28;20005;-63
2023/08/25 07:44:40;;;;;;;;;;;29.90;48.70;;;27.53;68.06;95557.41;4967538;28;20185;-64
2023/08/25 07:47:06;;;;;;;;;;;29.90;51.80;;;27.78;63.89;95535.16;4946556;28;19940;-64
2023/08/25 07:49:32;;;;;;;;;;;29.80;48.70;;;27.97;65.84;95554.63;4947788;28;19921;-66
2023/08/25 07:51:57;;;;;;;;;;;30.10;50.90;;;28.10;63.35;95554.84;4960174;28;20453;-65
2023/08/25 07:54:23;;;;;;;;;;;30.10;49.00;;;28.21;63.01;95570.44;4949054;28;19932;-64
2023/08/25 07:56:49;;;;;;;;;;;30.30;48.60;;;28.32;63.50;95565.59;4967865;28;19914;-64
2023/08/25 07:59:15;;;;;;;;;;;30.40;49.00;;;28.42;64.02;95581.50;4937969;28;19910;-64
2023/08/25 08:01:40;;;;;;;;;;;30.20;50.30;;;28.41;65.21;95590.75;4966115;28;19918;-64
2023/08/25 08:04:07;;;;;;;;;;;30.00;51.90;;;28.31;64.77;95591.84;4953153;28;20377;-65
2023/08/25 08:06:33;;;;;;;;;;;29.60;51.90;;;28.19;65.39;95599.72;4961499;28;19958;-72
2023/08/25 08:08:59;;;;;;;;;;;29.40;52.60;;;28.01;65.63;95590.75;4964733;28;19918;-66
2023/08/25 08:11:25;;;;;;;;;;;29.20;53.10;;;27.84;67.23;95609.59;4963811;28;19981;-65
2023/08/25 08:13:51;;;;;;;;;;;29.00;54.60;;;27.66;68.05;95613.31;4961203;28;19932;-67
2023/08/25 08:16:17;;;;;;;;;;;28.70;55.70;;;27.50;68.62;95620.16;4964806;28;19918;-66
2023/08/25 08:18:42;;;;;;;;;;;28.60;55.80;;;27.32;70.31;95633.53;4948215;28;21568;-66
2023/08/25 08:21:08;;;;;;;;;;;28.40;57.40;;;27.13;71.56;95639.13;4963084;28;19977;-67
2023/08/25 08:23:34;;;;;;;;;;;28.10;59.00;;;26.97;74.05;95639.75;4966678;28;19941;-66
2023/08/25 08:25:59;;;;;;;;;;;28.00;60.50;;;26.80;74.02;95651.19;4949007;28;19922;-66
2023/08/25 08:28:25;;;;;;;;;;;27.80;60.40;;;26.63;74.96;95641.00;4969443;28;19918;-65
2023/08/25 08:30:50;;;;;;;;;;;27.70;61.20;;;26.48;76.72;95665.59;4952916;28;19918;-65
2023/08/25 08:33:16;;;;;;;;;;;27.50;62.30;;;26.33;77.75;95696.34;4958919;28;19988;-66
2023/08/25 08:35:42;;;;;;;;;;;27.40;63.10;;;26.16;77.26;95718.47;4968226;28;19925;-63
2023/08/25 08:38:08;;;;;;;;;;;27.10;63.50;;;26.00;78.14;95724.41;4966334;28;19914;-65
2023/08/25 08:40:34;;;;;;;;;;;27.00;64.20;;;25.76;78.90;95681.44;4950316;28;19929;-64
2023/08/25 08:43:03;;;;;;;;;;;26.80;64.10;;;25.57;81.35;95698.44;4951083;28;19921;-65
2023/08/25 08:45:34;;;;;;;;;;;26.60;65.90;;;25.44;81.70;95766.50;4967550;28;19965;-67
2023/08/25 08:48:00;;;;;;;;;;;26.50;66.30;;;25.29;80.72;95758.63;4950385;28;19921;-62
2023/08/25 08:50:26;;;;;;;;;;;26.10;65.80;;;25.12;79.79;95737.59;4964611;28;19914;-64
2023/08/25 08:52:52;;;;;;;;;;;26.10;65.10;;;25.02;81.97;95776.19;4968022;28;19933;-63
2023/08/25 08:55:20;;;;;;;;;;;26.10;66.30;;;24.94;80.63;95767.94;4963899;28;20392;-64
2023/08/25 08:57:45;;;;;;;;;;;26.00;65.70;;;24.85;80.63;95807.31;4965446;28;19918;-65
2023/08/25 09:00:12;;;;;;;;;;;25.90;65.90;;;24.74;79.40;95809.31;4915414;28;21114;-69
2023/08/25 09:02:39;;;;;;;;;;;25.60;65.40;;;24.62;79.14;95854.63;4951251;28;19918;-65
2023/08/25 09:05:05;;;;;;;;;;;25.50;65.30;;;24.43;79.21;95874.16;4963689;28;19943;-63
2023/08/25 09:07:32;;;;;;;;;;;25.10;65.80;;;24.30;79.72;95872.13;4952565;28;19914;-64
2023/08/25 09:09:58;;;;;;;;;;;25.10;66.50;;;24.27;80.88;95856.53;4964364;28;20495;-63
2023/08/25 09:12:23;;;;;;;;;;;25.40;66.10;;;24.27;80.35;95851.16;4967152;28;19922;-65
2023/08/25 09:14:49;;;;;;;;;;;25.50;65.50;;;24.41;81.09;95852.13;4968882;28;19910;-65
2023/08/25 09:17:15;;;;;;;;;;;26.10;64.50;;;24.65;80.98;95836.03;4968627;28;19926;-68
2023/08/25 09:19:40;;;;;;;;;;;26.80;63.10;;;24.91;78.87;95844.66;4949504;28;20398;-64
2023/08/25 09:22:09;;;;;;;;;;;26.90;61.60;;;25.07;79.62;95841.81;4950857;28;20433;-64
2023/08/25 09:24:36;;;;;;;;;;;27.00;62.50;;;25.22;79.49;95833.56;4969723;28;19914;-69
2023/08/25 09:27:02;;;;;;;;;;;27.10;62.10;;;25.33;79.36;95818.88;4953207;28;19956;-63
2023/08/25 09:29:39;;;;;;;;;;;27.10;62.30;;;25.44;78.05;95820.34;4969046;28;19917;-65
2023/08/25 09:32:05;;;;;;;;;;;27.20;61.60;;;25.51;77.84;95818.09;4951611;28;20440;-67
2023/08/25 09:34:31;;;;;;;;;;;27.20;61.20;;;25.68;76.32;95811.44;4947812;28;19918;-64
2023/08/25 09:36:56;;;;;;;;;;;27.80;59.80;;;25.89;76.58;95799.25;4966616;28;19918;-63
2023/08/25 09:39:22;;;;;;;;;;;28.20;59.30;;;26.29;74.44;95807.78;4966861;28;19917;-65
2023/08/25 09:41:48;;;;;;;;;;;29.10;56.40;;;26.74;74.44;95815.09;4966477;28;19920;-68
2023/08/25 09:44:15;;;;;;;;;;;29.90;55.50;;;27.17;74.07;95827.53;4969799;28;19924;-68
2023/08/25 09:46:41;;;;;;;;;;;30.40;54.30;;;27.54;72.08;95826.47;4952691;28;19921;-66
2023/08/25 09:49:07;;;;;;;;;;;30.50;53.50;;;27.79;70.50;95823.22;4965406;28;20518;-69
2023/08/25 09:51:41;;;;;;;;;;;30.60;52.90;;;28.08;69.98;95816.66;4947766;28;20382;-65
2023/08/25 09:54:12;;;;;;;;;;;31.00;52.30;;;28.29;67.36;95806.94;4968595;28;19956;-64
2023/08/25 09:56:39;;;;;;;;;;;31.10;50.90;;;28.45;67.94;95808.16;4968218;28;20386;-70
2023/08/25 09:59:04;;;;;;;;;;;31.10;51.50;;;28.57;67.73;95813.81;4950312;28;19956;-66
2023/08/25 10:01:32;;;;;;;;;;;31.30;51.00;;;28.70;65.59;95806.69;4949071;28;20445;-68
2023/08/25 10:03:57;;;;;;;;;;;31.40;49.10;;;28.88;64.17;95810.31;4962388;28;19913;-67
2023/08/25 10:06:23;;;;;;;;;;;31.60;48.40;;;29.05;63.35;95833.94;4935591;28;19921;-68
2023/08/25 10:08:49;;;;;;;;;;;31.60;47.90;;;29.17;64.02;95832.22;4948637;28;19924;-68
2023/08/25 10:11:16;;;;;;;;;;;31.90;48.20;;;29.35;62.42;95819.53;4948639;28;20460;-68
2023/08/25 10:13:42;;;;;;;;;;;32.20;47.70;;;29.51;63.24;95833.47;4950422;28;19918;-64
2023/08/25 10:16:07;;;;;;;;;;;32.10;48.00;;;29.61;61.20;95816.09;4951307;28;19937;-67
2023/08/25 10:18:37;;;;;;;;;;;32.10;46.80;;;29.65;61.97;95833.31;4951342;28;20000;-66
2023/08/25 10:21:03;;;;;;;;;;;32.00;48.30;;;29.63;60.60;95820.09;4948640;28;19942;-67
2023/08/25 10:23:28;;;;;;;;;;;31.70;47.10;;;29.64;60.05;95818.97;4934525;28;20332;-66
2023/08/25 10:25:54;;;;;;;;;;;31.80;46.70;;;29.69;59.48;95818.03;4951244;28;19978;-62
2023/08/25 10:28:22;;;;;;;;;;;32.00;46.00;;;29.69;60.08;95818.84;4966247;28;19985;-66
2023/08/25 10:30:48;;;;;;;;;;;31.80;46.50;;;29.69;60.70;95824.25;4951708;28;19914;-66
2023/08/25 10:33:13;;;;;;;;;;;31.70;47.70;;;29.63;60.29;95819.28;4934128;28;19976;-66
2023/08/25 10:35:46;;;;;;;;;;;31.50;47.20;;;29.66;59.69;95819.47;4969205;28;19914;-65
2023/08/25 10:38:18;;;;;;;;;;;32.00;46.40;;;29.65;59.32;95825.19;4950161;28;19914;-65
2023/08/25 10:40:53;;;;;;;;;;;31.60;45.60;;;29.71;58.68;95827.44;4976411;28;20506;-62
2023/08/25 10:43:31;;;;;;;;;;;32.20;45.80;;;29.82;58.71;95831.44;4965828;28;19920;-61
2023/08/25 10:45:56;;;;;;;;;;;32.60;44.60;;;29.86;57.11;95816.13;4946436;28;20345;-62
2023/08/25 10:48:25;;;;;;;;;;;32.30;44.40;;;29.95;57.73;95816.13;4966592;28;19920;-65
2023/08/25 10:51:10;;;;;;;;;;;32.80;43.80;;;30.17;59.25;95826.03;4960838;28;19918;-68
2023/08/25 10:53:44;;;;;;;;;;;33.30;44.50;;;30.49;57.27;95822.00;4962843;28;20016;-62
2023/08/25 10:56:30;;;;;;;;;;;34.70;41.40;;;31.14;55.16;95798.31;4962847;28;19972;-65
2023/08/25 10:59:03;;;;;;;;;;;36.10;38.40;;;31.72;54.04;95783.13;4964344;28;19917;-65
2023/08/25 11:01:38;;;;;;;;;;;36.80;36.00;;;32.35;54.04;95786.59;4962024;28;19918;-65
2023/08/25 11:04:07;;;;;;;;;;;38.10;35.20;;;32.96;51.29;95773.91;4960801;28;19931;-67
2023/08/25 11:06:43;;;;;;;;;;;39.00;34.40;;;33.67;49.11;95761.69;4964080;28;19918;-67
2023/08/25 11:09:10;;;;;;;;;;;39.50;32.60;;;34.00;47.47;95758.78;4966483;28;19910;-66
2023/08/25 11:11:37;;;;;;;;;;;39.30;31.90;;;34.22;45.50;95736.38;4947940;28;20065;-67
2023/08/25 11:14:03;;;;;;;;;;;39.10;31.50;;;34.62;48.64;95771.78;4943893;28;19918;-64